Time;durP1;ratioP1;P1;durP2;ratioP2;P2;SDS_P1;SDS_P2;PMS_P1;PMS_P2;Temp;Humidity;BMP_temperature;BMP_pressure;BME280_temperature;BME280_humidity;BME280_pressure;Samples;Min_cycle;Max_cycle;Signal;HPM_P1;HPM_P2
2023/05/01 00:01:45;;;;;;;2.15;0.70;;;20.70;1.00;;;;;;4842202;29;20518;-44
2023/05/01 00:04:12;;;;;;;1.83;0.52;;;20.60;1.00;;;;;;4842137;29;20132;-45
2023/05/01 00:06:39;;;;;;;1.38;0.80;;;20.60;1.00;;;;;;4842370;29;20522;-45
2023/05/01 00:09:06;;;;;;;2.17;0.80;;;20.60;1.00;;;;;;4842071;29;20048;-45
2023/05/01 00:11:34;;;;;;;1.63;0.80;;;20.60;1.00;;;;;;4842469;29;20517;-44
2023/05/01 00:14:02;;;;;;;3.53;1.10;;;20.60;1.00;;;;;;4840825;29;20546;-43
2023/05/01 00:16:28;;;;;;;0.88;0.60;;;20.60;1.00;;;;;;4841968;29;20046;-44
2023/05/01 00:18:55;;;;;;;2.92;1.00;;;20.60;1.00;;;;;;4834584;29;20456;-43
2023/05/01 00:21:22;;;;;;;2.90;1.33;;;20.60;1.00;;;;;;4842092;29;20037;-46
2023/05/01 00:23:49;;;;;;;1.73;0.82;;;20.50;1.00;;;;;;4841711;29;20038;-43
2023/05/01 00:26:15;;;;;;;2.13;0.85;;;20.50;1.00;;;;;;4840716;29;20046;-43
2023/05/01 00:28:45;;;;;;;1.40;0.88;;;20.50;1.00;;;;;;4841937;29;20054;-44
2023/05/01 00:31:12;;;;;;;2.08;0.73;;;20.50;1.00;;;;;;4842014;29;20487;-44
2023/05/01 00:33:39;;;;;;;2.42;0.50;;;20.50;1.00;;;;;;4841746;29;20542;-42
2023/05/01 00:36:06;;;;;;;1.23;0.63;;;20.50;1.00;;;;;;4840596;29;20042;-44
2023/05/01 00:38:32;;;;;;;1.60;0.60;;;20.50;1.00;;;;;;4840637;29;20041;-42
2023/05/01 00:40:59;;;;;;;1.73;0.60;;;20.40;1.00;;;;;;4840331;29;20074;-43
2023/05/01 00:43:26;;;;;;;1.23;0.60;;;20.40;1.00;;;;;;4840221;29;20046;-42
2023/05/01 00:45:52;;;;;;;2.17;0.93;;;20.40;1.00;;;;;;4840187;29;20494;-42
2023/05/01 00:48:19;;;;;;;1.75;0.70;;;20.40;1.00;;;;;;4839828;29;20050;-42
2023/05/01 00:50:47;;;;;;;2.03;0.82;;;20.40;1.00;;;;;;4840332;29;20054;-42
2023/05/01 00:53:15;;;;;;;1.60;0.82;;;20.30;1.00;;;;;;4841543;29;20109;-41
2023/05/01 00:55:42;;;;;;;1.73;0.80;;;20.30;1.00;;;;;;4840097;29;20697;-43
2023/05/01 00:58:10;;;;;;;3.08;0.90;;;20.40;1.00;;;;;;4840221;29;20417;-42
2023/05/01 01:00:37;;;;;;;1.20;0.60;;;20.30;1.00;;;;;;4841491;29;20526;-42
2023/05/01 01:03:04;;;;;;;1.88;0.93;;;20.30;1.00;;;;;;4832661;29;20128;-42
2023/05/01 01:05:39;;;;;;;2.03;0.70;;;20.30;1.00;;;;;;4839952;29;20065;-43
2023/05/01 01:08:38;;;;;;;2.05;0.73;;;20.30;1.00;;;;;;4840255;29;20098;-43
2023/05/01 01:11:31;;;;;;;1.17;0.60;;;20.30;1.00;;;;;;4826805;29;20054;-43
2023/05/01 01:14:02;;;;;;;;;;;20.30;1.00;;;;;;4840187;29;20053;-42
2023/05/01 01:16:29;;;;;;;1.08;0.55;;;20.20;1.00;;;;;;4840199;29;19932;-45
2023/05/01 01:19:03;;;;;;;1.38;0.63;;;20.20;1.00;;;;;;4833842;29;20111;-42
2023/05/01 01:21:36;;;;;;;3.17;0.60;;;20.20;1.00;;;;;;4840112;29;20068;-42
2023/05/01 01:24:09;;;;;;;2.08;0.60;;;20.20;1.00;;;;;;4839724;29;20102;-43
2023/05/01 01:26:46;;;;;;;3.33;1.02;;;20.20;1.00;;;;;;4833041;29;20141;-42
2023/05/01 01:29:37;;;;;;;1.70;0.77;;;20.20;1.00;;;;;;4826919;29;20046;-42
2023/05/01 01:32:53;;;;;;;3.53;0.68;;;20.20;1.00;;;;;;4841445;29;20046;-42
2023/05/01 01:35:25;;;;;;;1.58;0.70;;;20.10;1.00;;;;;;4821555;29;20054;-43
2023/05/01 01:38:14;;;;;;;1.45;0.65;;;20.10;1.00;;;;;;4840055;29;20062;-43
2023/05/01 01:40:52;;;;;;;2.20;0.63;;;20.10;1.00;;;;;;4841278;29;20046;-42
2023/05/01 01:43:21;;;;;;;1.48;0.90;;;20.10;1.00;;;;;;4836450;29;20095;-43
2023/05/01 01:45:56;;;;;;;1.60;0.98;;;20.10;1.00;;;;;;4830041;29;20050;-43
2023/05/01 01:48:30;;;;;;;3.10;0.85;;;20.00;1.00;;;;;;4841270;29;20049;-43
2023/05/01 01:50:59;;;;;;;1.58;0.70;;;20.00;1.00;;;;;;4839816;29;20054;-43
2023/05/01 01:53:28;;;;;;;1.73;0.50;;;20.00;1.00;;;;;;4839796;29;20064;-44
2023/05/01 01:55:58;;;;;;;1.00;0.73;;;20.00;1.00;;;;;;4839554;29;20049;-43
2023/05/01 01:58:29;;;;;;;1.27;0.50;;;20.00;1.00;;;;;;4839931;29;20442;-43
2023/05/01 02:00:58;;;;;;;1.25;0.80;;;20.00;1.00;;;;;;4841853;29;20050;-43
2023/05/01 02:03:25;;;;;;;1.20;0.60;;;20.00;1.00;;;;;;4843050;29;20057;-44
2023/05/01 02:05:55;;;;;;;1.23;0.50;;;20.00;1.00;;;;;;4842929;29;20045;-44
2023/05/01 02:08:23;;;;;;;1.77;0.60;;;20.00;1.00;;;;;;4843115;29;20459;-44
2023/05/01 02:10:56;;;;;;;1.23;0.80;;;20.00;1.00;;;;;;4844357;29;20050;-44
2023/05/01 02:13:28;;;;;;;1.45;0.47;;;20.00;1.00;;;;;;4842863;29;20054;-43
2023/05/01 02:15:59;;;;;;;1.58;0.65;;;20.00;1.00;;;;;;4842728;29;20054;-44
2023/05/01 02:18:28;;;;;;;0.65;0.45;;;19.90;1.00;;;;;;4837238;29;20130;-44
2023/05/01 02:20:58;;;;;;;0.98;0.55;;;19.90;1.00;;;;;;4841315;29;20046;-43
2023/05/01 02:23:27;;;;;;;1.20;0.52;;;19.90;1.00;;;;;;4842841;29;20520;-44
2023/05/01 02:25:56;;;;;;;1.92;0.73;;;19.90;1.00;;;;;;4843845;29;20049;-43
2023/05/01 02:28:25;;;;;;;1.00;0.55;;;19.90;1.00;;;;;;4842690;29;20060;-44
2023/05/01 02:30:52;;;;;;;1.58;0.52;;;19.90;1.00;;;;;;4842759;29;20050;-44
2023/05/01 02:33:19;;;;;;;1.52;0.55;;;19.80;1.00;;;;;;4834493;29;20068;-44
2023/05/01 02:35:46;;;;;;;2.08;0.70;;;19.80;1.00;;;;;;4842450;29;20049;-43
2023/05/01 02:38:16;;;;;;;1.00;0.52;;;19.90;1.00;;;;;;4842874;29;20414;-43
2023/05/01 02:40:47;;;;;;;1.42;0.88;;;19.90;1.00;;;;;;4842484;29;20057;-43
2023/05/01 02:43:17;;;;;;;1.38;0.60;;;19.80;1.00;;;;;;4828525;29;20042;-45
2023/05/01 02:45:45;;;;;;;3.88;1.08;;;19.80;1.00;;;;;;4842330;29;20052;-44
2023/05/01 02:48:17;;;;;;;1.45;0.80;;;19.80;1.00;;;;;;4828070;29;20054;-45
2023/05/01 02:50:45;;;;;;;1.48;0.65;;;19.80;1.00;;;;;;4842370;29;20145;-44
2023/05/01 02:53:14;;;;;;;2.47;0.90;;;19.80;1.00;;;;;;4842267;29;20073;-43
2023/05/01 02:55:49;;;;;;;3.90;1.13;;;19.80;1.00;;;;;;4842285;29;20106;-43
2023/05/01 02:58:19;;;;;;;1.75;0.63;;;19.80;1.00;;;;;;4842339;29;20081;-43
2023/05/01 03:00:50;;;;;;;2.00;0.60;;;19.80;1.00;;;;;;4842020;29;20050;-44
2023/05/01 03:03:18;;;;;;;2.00;1.17;;;19.80;1.00;;;;;;4842084;29;20060;-43
2023/05/01 03:05:46;;;;;;;2.47;0.77;;;19.70;1.00;;;;;;4843223;29;20042;-44
2023/05/01 03:08:13;;;;;;;2.67;0.57;;;19.70;1.00;;;;;;4842070;29;20095;-43
2023/05/01 03:10:43;;;;;;;1.13;0.50;;;19.70;1.00;;;;;;4842102;29;20109;-43
2023/05/01 03:13:10;;;;;;;1.60;1.10;;;19.70;1.00;;;;;;4841166;29;20525;-43
2023/05/01 03:15:37;;;;;;;1.95;0.70;;;19.70;1.00;;;;;;4842980;29;20125;-43
2023/05/01 03:18:05;;;;;;;1.95;0.80;;;19.70;1.00;;;;;;4839384;29;20085;-43
2023/05/01 03:20:32;;;;;;;2.72;1.48;;;19.60;1.00;;;;;;4831096;29;20507;-43
2023/05/01 03:22:59;;;;;;;1.92;0.77;;;19.70;1.00;;;;;;4840157;29;20673;-44
2023/05/01 03:25:26;;;;;;;0.93;0.52;;;19.60;1.00;;;;;;4841618;29;20083;-43
2023/05/01 03:27:52;;;;;;;2.53;0.63;;;19.60;1.00;;;;;;4842884;29;20046;-44
2023/05/01 03:30:21;;;;;;;2.63;0.60;;;19.60;1.00;;;;;;4841771;29;20046;-43
2023/05/01 03:32:50;;;;;;;3.13;1.27;;;19.60;1.00;;;;;;4841515;29;20046;-44
2023/05/01 03:35:22;;;;;;;2.00;0.52;;;19.60;1.00;;;;;;4841322;29;20046;-44
2023/05/01 03:37:49;;;;;;;2.30;0.80;;;19.60;1.00;;;;;;4842881;29;20046;-43
2023/05/01 03:40:36;;;;;;;3.15;0.60;;;19.60;1.00;;;;;;4842401;29;20042;-43
2023/05/01 03:43:32;;;;;;;1.85;0.70;;;19.60;1.00;;;;;;4808346;29;20055;-43
2023/05/01 03:46:04;;;;;;;1.00;0.40;;;19.60;1.00;;;;;;4841237;29;20057;-45
2023/05/01 03:48:31;;;;;;;2.47;0.80;;;19.50;1.00;;;;;;4841547;29;20368;-43
2023/05/01 03:50:58;;;;;;;2.13;1.30;;;19.50;1.00;;;;;;4841194;29;20046;-44
2023/05/01 03:53:25;;;;;;;1.63;0.95;;;19.50;1.00;;;;;;4841096;29;20472;-44
2023/05/01 03:55:52;;;;;;;1.92;0.73;;;19.50;1.00;;;;;;4840950;29;20479;-44
2023/05/01 03:58:21;;;;;;;0.70;0.50;;;19.50;1.00;;;;;;4841169;29;20046;-43
2023/05/01 04:00:47;;;;;;;1.48;0.70;;;19.50;1.00;;;;;;4841136;29;20075;-43
2023/05/01 04:03:14;;;;;;;1.63;0.70;;;19.50;1.00;;;;;;4841074;29;20517;-43
2023/05/01 04:05:42;;;;;;;1.00;0.50;;;19.50;1.00;;;;;;4840991;29;20054;-43
2023/05/01 04:08:10;;;;;;;2.95;1.00;;;19.50;1.00;;;;;;4840619;29;20148;-44
2023/05/01 04:10:36;;;;;;;1.60;0.90;;;19.50;1.00;;;;;;4841853;29;20042;-45
2023/05/01 04:13:03;;;;;;;1.77;0.70;;;19.50;1.00;;;;;;4839332;29;20118;-42
2023/05/01 04:15:31;;;;;;;2.70;0.82;;;19.50;1.00;;;;;;4840395;29;20046;-43
2023/05/01 04:17:58;;;;;;;2.25;0.93;;;19.40;1.00;;;;;;4838986;29;20042;-43
2023/05/01 04:20:25;;;;;;;2.70;0.80;;;19.50;1.00;;;;;;4834461;29;20050;-42
2023/05/01 04:22:51;;;;;;;2.85;0.75;;;19.50;1.00;;;;;;4840401;29;20154;-42
2023/05/01 04:25:18;;;;;;;2.33;1.20;;;19.40;1.00;;;;;;4840310;29;20444;-43
2023/05/01 04:27:48;;;;;;;7.43;1.63;;;19.40;1.00;;;;;;4840564;29;20052;-44
2023/05/01 04:30:15;;;;;;;6.72;0.95;;;19.40;1.00;;;;;;4840680;29;20070;-43
2023/05/01 04:32:42;;;;;;;2.80;1.13;;;19.40;1.00;;;;;;4840450;29;20054;-43
2023/05/01 04:35:11;;;;;;;3.50;1.30;;;19.30;1.00;;;;;;4841563;29;20052;-42
2023/05/01 04:37:40;;;;;;;5.95;1.67;;;19.40;1.00;;;;;;4826759;29;20062;-42
2023/05/01 04:40:08;;;;;;;1.65;1.15;;;19.30;1.00;;;;;;4839514;29;20041;-42
2023/05/01 04:42:38;;;;;;;2.30;0.95;;;19.30;1.00;;;;;;4834334;29;20153;-43
2023/05/01 04:45:08;;;;;;;1.75;0.90;;;19.30;1.00;;;;;;4824601;29;20054;-43
2023/05/01 04:47:35;;;;;;;3.33;0.77;;;19.30;1.00;;;;;;4841761;29;20427;-42
2023/05/01 04:50:02;;;;;;;2.08;0.90;;;19.30;1.00;;;;;;4841661;29;20133;-44
2023/05/01 04:52:30;;;;;;;2.00;0.88;;;19.20;1.00;;;;;;4840308;29;20102;-42
2023/05/01 04:54:59;;;;;;;5.13;0.85;;;19.30;1.00;;;;;;4839869;29;20388;-44
2023/05/01 04:57:29;;;;;;;2.70;0.85;;;19.20;1.00;;;;;;4840383;29;20038;-43
2023/05/01 04:59:55;;;;;;;4.32;1.17;;;19.20;1.00;;;;;;4840115;29;20514;-43
2023/05/01 05:02:23;;;;;;;2.00;0.90;;;19.20;1.00;;;;;;4840269;29;20485;-44
2023/05/01 05:04:52;;;;;;;2.15;0.70;;;19.20;1.00;;;;;;4839905;29;20050;-44
2023/05/01 05:07:19;;;;;;;2.28;1.00;;;19.20;1.00;;;;;;4840283;29;20502;-43
2023/05/01 05:10:12;;;;;;;1.30;0.60;;;19.20;1.00;;;;;;4830963;29;20058;-44
2023/05/01 05:12:44;;;;;;;1.85;0.80;;;19.20;1.00;;;;;;4840198;29;20054;-43
2023/05/01 05:15:10;;;;;;;4.50;1.17;;;19.20;1.00;;;;;;4838958;29;20054;-43
2023/05/01 05:17:37;;;;;;;2.20;0.85;;;19.20;1.00;;;;;;4835051;29;20094;-43
2023/05/01 05:20:05;;;;;;;2.70;1.30;;;19.20;1.00;;;;;;4833832;29;20134;-46
2023/05/01 05:22:35;;;;;;;2.65;0.90;;;19.20;1.00;;;;;;4835038;29;20054;-43
2023/05/01 05:25:20;;;;;;;5.53;1.27;;;19.20;1.00;;;;;;4832781;29;20494;-44
2023/05/01 05:27:47;;;;;;;2.47;1.05;;;19.10;1.00;;;;;;4839865;29;20053;-45
2023/05/01 05:30:14;;;;;;;1.30;0.63;;;19.10;1.00;;;;;;4840081;29;20056;-44
2023/05/01 05:32:41;;;;;;;3.05;1.25;;;19.20;1.00;;;;;;4839886;29;20045;-43
2023/05/01 05:35:08;;;;;;;5.60;1.20;;;19.10;1.00;;;;;;4833236;29;20050;-43
2023/05/01 05:37:34;;;;;;;1.63;0.90;;;19.10;1.00;;;;;;4843534;29;20049;-43
2023/05/01 05:40:01;;;;;;;3.80;1.02;;;19.10;1.00;;;;;;4843466;29;20102;-43
2023/05/01 05:42:35;;;;;;;1.25;0.68;;;19.10;1.00;;;;;;4843486;29;20133;-43
2023/05/01 05:45:06;;;;;;;3.20;1.05;;;19.10;1.00;;;;;;4843111;29;20122;-45
2023/05/01 05:47:33;;;;;;;2.53;0.98;;;19.10;1.00;;;;;;4843393;29;20046;-44
2023/05/01 05:50:00;;;;;;;1.95;0.88;;;19.10;1.00;;;;;;4843353;29;20065;-43
2023/05/01 05:52:27;;;;;;;1.73;0.85;;;19.10;1.00;;;;;;4828076;29;20048;-44
2023/05/01 05:54:55;;;;;;;1.80;0.80;;;19.10;1.00;;;;;;4843027;29;20054;-44
2023/05/01 05:57:22;;;;;;;2.80;1.10;;;19.10;1.00;;;;;;4843365;29;20042;-43
2023/05/01 05:59:50;;;;;;;3.17;1.20;;;19.20;1.00;;;;;;4844671;29;20041;-44
2023/05/01 06:02:21;;;;;;;2.17;0.80;;;19.20;1.00;;;;;;4843039;29;20046;-45
2023/05/01 06:04:48;;;;;;;1.80;0.80;;;19.10;1.00;;;;;;4842793;29;20145;-45
2023/05/01 06:07:17;;;;;;;3.90;1.00;;;19.10;1.00;;;;;;4843106;29;20045;-44
2023/05/01 06:09:44;;;;;;;4.82;0.90;;;19.10;1.00;;;;;;4842826;29;20079;-43
2023/05/01 06:12:11;;;;;;;4.65;0.93;;;19.20;1.00;;;;;;4843228;29;20057;-44
2023/05/01 06:14:39;;;;;;;3.38;0.98;;;19.10;1.00;;;;;;4842701;29;20064;-44
2023/05/01 06:17:07;;;;;;;1.58;0.73;;;19.20;1.00;;;;;;4833962;29;20057;-45
2023/05/01 06:19:34;;;;;;;1.50;0.65;;;19.20;1.00;;;;;;4834793;29;20056;-44
2023/05/01 06:22:08;;;;;;;2.97;1.33;;;19.20;1.00;;;;;;4827786;29;20647;-47
2023/05/01 06:24:41;;;;;;;3.25;1.15;;;19.20;1.00;;;;;;4842643;29;20054;-44
2023/05/01 06:27:10;;;;;;;2.72;0.93;;;19.20;1.00;;;;;;4842674;29;20042;-43
2023/05/01 06:29:37;;;;;;;4.72;1.25;;;19.20;1.00;;;;;;4843874;29;20049;-43
2023/05/01 06:32:04;;;;;;;4.03;0.93;;;19.20;1.00;;;;;;4842616;29;20049;-42
2023/05/01 06:34:31;;;;;;;1.85;0.77;;;19.20;1.00;;;;;;4842252;29;20058;-44
2023/05/01 06:36:58;;;;;;;1.33;0.60;;;19.20;1.00;;;;;;4842515;29;20560;-44
2023/05/01 06:39:25;;;;;;;3.38;1.00;;;19.20;1.00;;;;;;4842522;29;20049;-42
2023/05/01 06:41:52;;;;;;;3.25;0.90;;;19.20;1.00;;;;;;4842346;29;20054;-44
2023/05/01 06:44:29;;;;;;;1.80;1.00;;;19.20;1.00;;;;;;4842111;29;20042;-45
2023/05/01 06:47:00;;;;;;;2.33;1.63;;;19.20;1.00;;;;;;4841247;29;20133;-43
2023/05/01 06:49:27;;;;;;;3.90;0.88;;;19.20;1.00;;;;;;4842437;29;20495;-44
2023/05/01 06:51:54;;;;;;;1.15;0.80;;;19.20;1.00;;;;;;4843809;29;20050;-43
2023/05/01 06:54:21;;;;;;;1.98;0.90;;;19.20;1.00;;;;;;4841829;29;20095;-45
2023/05/01 06:56:47;;;;;;;3.45;1.38;;;19.20;1.00;;;;;;4842265;29;20074;-44
2023/05/01 06:59:14;;;;;;;1.50;0.60;;;19.20;1.00;;;;;;4842047;29;20116;-47
2023/05/01 07:01:41;;;;;;;1.15;0.68;;;19.20;1.00;;;;;;4842168;29;20046;-44
2023/05/01 07:04:08;;;;;;;1.17;0.70;;;19.20;1.00;;;;;;4843052;29;20042;-43
2023/05/01 07:06:34;;;;;;;2.42;0.85;;;19.20;1.00;;;;;;4843511;29;20101;-43
2023/05/01 07:09:02;;;;;;;1.75;0.95;;;19.30;1.00;;;;;;4843069;29;20041;-44
2023/05/01 07:11:29;;;;;;;2.38;0.80;;;19.30;1.00;;;;;;4843562;29;20048;-43
2023/05/01 07:13:56;;;;;;;2.85;1.33;;;19.30;1.00;;;;;;4842868;29;20046;-45
2023/05/01 07:16:23;;;;;;;1.55;0.70;;;19.30;1.00;;;;;;4843299;29;20391;-43
2023/05/01 07:18:50;;;;;;;3.20;0.88;;;19.30;1.00;;;;;;4836680;29;20042;-43
2023/05/01 07:21:17;;;;;;;3.28;0.80;;;19.30;1.00;;;;;;4840156;29;20039;-45
2023/05/01 07:23:45;;;;;;;1.75;0.85;;;19.30;1.00;;;;;;4830185;29;20118;-45
2023/05/01 07:26:11;;;;;;;2.85;1.10;;;19.30;1.00;;;;;;4843046;29;20069;-42
2023/05/01 07:28:38;;;;;;;1.98;0.80;;;19.30;1.00;;;;;;4842897;29;20042;-43
2023/05/01 07:31:05;;;;;;;1.45;0.63;;;19.20;1.00;;;;;;4842959;29;20106;-42
2023/05/01 07:33:31;;;;;;;1.17;0.77;;;19.20;1.00;;;;;;4838867;29;20054;-43
2023/05/01 07:35:58;;;;;;;2.08;0.75;;;19.30;1.00;;;;;;4839340;29;20455;-45
2023/05/01 07:38:25;;;;;;;3.50;0.77;;;19.20;1.00;;;;;;4842856;29;20046;-44
2023/05/01 07:40:52;;;;;;;2.55;0.90;;;19.20;1.00;;;;;;4842890;29;20053;-49
2023/05/01 07:43:19;;;;;;;2.95;0.88;;;19.20;1.00;;;;;;4842482;29;20049;-44
2023/05/01 07:45:57;;;;;;;3.15;1.23;;;19.20;1.00;;;;;;4842695;29;20467;-48
2023/05/01 07:48:24;;;;;;;2.08;0.80;;;19.20;1.00;;;;;;4842601;29;20048;-46
2023/05/01 07:50:51;;;;;;;2.95;0.98;;;19.20;1.00;;;;;;4842810;29;20114;-44
2023/05/01 07:53:18;;;;;;;1.80;0.90;;;19.30;1.00;;;;;;4842307;29;20061;-43
2023/05/01 07:55:45;;;;;;;1.98;0.95;;;19.20;1.00;;;;;;4842451;29;20049;-45
2023/05/01 07:58:12;;;;;;;2.17;1.05;;;19.20;1.00;;;;;;4842140;29;20046;-43
2023/05/01 08:00:39;;;;;;;3.03;0.85;;;19.20;1.00;;;;;;4842522;29;20050;-43
2023/05/01 08:03:05;;;;;;;2.35;0.90;;;19.20;1.00;;;;;;4842057;29;20050;-46
2023/05/01 08:05:33;;;;;;;1.38;0.82;;;19.20;1.00;;;;;;4842146;29;20440;-44
2023/05/01 08:07:59;;;;;;;1.95;0.93;;;19.20;1.00;;;;;;4842312;29;20042;-44
2023/05/01 08:10:27;;;;;;;1.90;1.00;;;19.20;1.00;;;;;;4842117;29;20045;-44
2023/05/01 08:12:54;;;;;;;1.80;0.80;;;19.20;1.00;;;;;;4842280;29;20482;-43
2023/05/01 08:15:21;;;;;;;1.67;0.85;;;19.20;1.00;;;;;;4841754;29;20081;-44
2023/05/01 08:17:47;;;;;;;2.67;1.05;;;19.20;1.00;;;;;;4841946;29;20507;-44
2023/05/01 08:20:14;;;;;;;2.28;1.10;;;19.20;1.00;;;;;;4834544;29;20088;-44
2023/05/01 08:22:41;;;;;;;1.38;0.63;;;19.20;1.00;;;;;;4842162;29;20038;-45
2023/05/01 08:25:08;;;;;;;3.75;1.25;;;19.20;1.00;;;;;;4841971;29;20118;-44
2023/05/01 08:27:35;;;;;;;1.67;0.88;;;19.20;1.00;;;;;;4841900;29;20041;-43
2023/05/01 08:30:01;;;;;;;2.50;1.55;;;19.20;1.00;;;;;;4842026;29;20045;-43
2023/05/01 08:32:28;;;;;;;1.45;0.50;;;19.20;1.00;;;;;;4842192;29;20430;-43
2023/05/01 08:34:55;;;;;;;1.95;0.95;;;19.20;1.00;;;;;;4841748;29;20042;-45
2023/05/01 08:37:22;;;;;;;1.75;1.20;;;19.20;1.00;;;;;;4841772;29;20082;-43
2023/05/01 08:39:48;;;;;;;1.73;1.05;;;19.20;1.00;;;;;;4841636;29;20074;-44
2023/05/01 08:42:16;;;;;;;2.17;0.85;;;19.20;1.00;;;;;;4841539;29;20462;-43
2023/05/01 08:44:44;;;;;;;2.35;1.02;;;19.20;1.00;;;;;;4841267;29;20075;-43
2023/05/01 08:47:15;;;;;;;2.72;1.13;;;19.20;1.00;;;;;;4841748;29;20050;-43
2023/05/01 08:49:43;;;;;;;2.17;1.15;;;19.20;1.00;;;;;;4841744;29;20099;-44
2023/05/01 08:52:11;;;;;;;3.60;0.90;;;19.20;1.00;;;;;;4841498;29;20084;-42
2023/05/01 08:54:42;;;;;;;1.83;0.82;;;19.20;1.00;;;;;;4841190;29;20050;-44
2023/05/01 08:57:11;;;;;;;4.15;1.10;;;19.20;1.00;;;;;;4841599;29;20050;-43
2023/05/01 08:59:38;;;;;;;6.45;1.48;;;19.20;1.00;;;;;;4841557;29;20113;-42
2023/05/01 09:02:07;;;;;;;2.20;1.08;;;19.20;1.00;;;;;;4833971;29;20110;-43
2023/05/01 09:04:37;;;;;;;2.67;1.13;;;19.20;1.00;;;;;;4837428;29;20070;-43
2023/05/01 09:07:04;;;;;;;1.92;1.38;;;19.20;1.00;;;;;;4823458;29;20085;-44
2023/05/01 09:09:32;;;;;;;1.58;0.80;;;19.20;1.00;;;;;;4833245;29;20432;-44
2023/05/01 09:12:24;;;;;;;1.85;0.82;;;19.20;1.00;;;;;;4841395;29;20507;-43
2023/05/01 09:14:55;;;;;;;2.60;1.20;;;19.20;1.00;;;;;;4834747;29;20526;-43
2023/05/01 09:17:23;;;;;;;2.80;1.15;;;19.20;1.00;;;;;;4841443;29;20073;-43
2023/05/01 09:19:50;;;;;;;1.73;0.88;;;19.20;1.00;;;;;;4833834;29;20447;-43
2023/05/01 09:22:18;;;;;;;1.80;0.93;;;19.20;1.00;;;;;;4839744;29;20087;-44
2023/05/01 09:24:45;;;;;;;1.27;0.82;;;19.20;1.00;;;;;;4840942;29;20050;-45
2023/05/01 09:27:13;;;;;;;1.55;0.90;;;19.20;1.00;;;;;;4841258;29;20042;-48
2023/05/01 09:29:45;;;;;;;2.47;0.88;;;19.20;1.00;;;;;;4841170;29;20046;-44
2023/05/01 09:32:23;;;;;;;2.53;1.27;;;19.20;1.00;;;;;;4841217;29;20053;-44
2023/05/01 09:34:52;;;;;;;2.58;1.42;;;19.20;1.00;;;;;;4840823;29;20125;-44
2023/05/01 09:37:33;;;;;;;1.83;1.05;;;19.20;1.00;;;;;;4841208;29;20436;-44
2023/05/01 09:40:10;;;;;;;3.35;0.90;;;19.20;1.00;;;;;;4841154;29;20054;-43
2023/05/01 09:42:38;;;;;;;2.80;1.45;;;19.20;1.00;;;;;;4841125;29;20071;-43
2023/05/01 09:45:13;;;;;;;1.38;0.82;;;19.20;1.00;;;;;;4841012;29;20506;-43
2023/05/01 09:47:44;;;;;;;1.63;1.00;;;19.20;1.00;;;;;;4841176;29;20050;-43
2023/05/01 09:50:28;;;;;;;2.83;1.30;;;19.20;1.00;;;;;;4841098;29;20050;-43
2023/05/01 09:52:55;;;;;;;2.00;1.30;;;19.20;1.00;;;;;;4841017;29;20054;-43
2023/05/01 09:55:25;;;;;;;3.47;1.15;;;19.20;1.00;;;;;;4840760;29;20050;-44
2023/05/01 09:57:52;;;;;;;1.88;1.10;;;19.20;1.00;;;;;;4840977;29;20118;-43
2023/05/01 10:00:20;;;;;;;4.70;1.10;;;19.20;1.00;;;;;;4841023;29;20127;-44
2023/05/01 10:02:48;;;;;;;3.17;1.25;;;19.20;1.00;;;;;;4840864;29;20046;-44
2023/05/01 10:05:17;;;;;;;0.98;0.52;;;19.20;1.00;;;;;;4840497;29;20495;-45
2023/05/01 10:08:00;;;;;;;2.13;1.17;;;19.20;1.00;;;;;;4840738;29;20046;-43
2023/05/01 10:10:27;;;;;;;;;;;19.20;1.00;;;;;;4841127;29;20050;-43
2023/05/01 10:12:54;;;;;;;3.00;1.00;;;19.20;1.00;;;;;;4840914;29;19925;-47
2023/05/01 10:15:21;;;;;;;2.13;1.10;;;19.20;1.00;;;;;;4840589;29;20414;-47
2023/05/01 10:17:52;;;;;;;3.85;1.50;;;19.20;1.00;;;;;;4840784;29;20052;-46
2023/05/01 10:20:20;;;;;;;2.22;1.27;;;19.20;1.00;;;;;;4833317;29;20081;-44
2023/05/01 10:22:48;;;;;;;3.03;1.50;;;19.20;1.00;;;;;;4843937;29;20118;-47
2023/05/01 10:25:16;;;;;;;1.90;1.52;;;19.20;1.00;;;;;;4843749;29;20463;-45
2023/05/01 10:27:43;;;;;;;2.67;1.23;;;19.20;1.00;;;;;;4842838;29;20041;-43
2023/05/01 10:30:11;;;;;;;1.55;1.17;;;19.20;1.00;;;;;;4843912;29;20380;-44
2023/05/01 10:32:40;;;;;;;2.80;1.60;;;19.20;1.00;;;;;;4842832;29;20050;-44
2023/05/01 10:35:20;;;;;;;2.13;1.35;;;19.20;1.00;;;;;;4842041;29;20042;-44
2023/05/01 10:37:50;;;;;;;2.50;1.33;;;19.20;1.00;;;;;;4842545;29;20061;-44
2023/05/01 10:40:38;;;;;;;1.92;1.17;;;19.20;1.00;;;;;;4841515;29;20137;-44
2023/05/01 10:43:29;;;;;;;3.42;1.60;;;19.20;1.00;;;;;;4836903;29;20057;-44
2023/05/01 10:46:08;;;;;;;5.05;1.92;;;19.20;1.00;;;;;;4842025;29;20050;-43
2023/05/01 10:48:38;;;;;;;2.65;1.50;;;19.20;1.00;;;;;;4831259;29;20079;-44
2023/05/01 10:51:26;;;;;;;2.35;1.13;;;19.20;1.00;;;;;;4838189;29;20042;-44
2023/05/01 10:54:12;;;;;;;3.38;1.48;;;19.20;1.00;;;;;;4841536;29;20090;-46
2023/05/01 10:56:41;;;;;;;4.30;1.58;;;19.20;1.00;;;;;;4842269;29;20077;-44
2023/05/01 10:59:10;;;;;;;3.05;1.60;;;19.20;1.00;;;;;;4842928;29;20114;-44
2023/05/01 11:01:46;;;;;;;4.25;1.42;;;19.20;1.00;;;;;;4843321;29;20049;-43
2023/05/01 11:04:25;;;;;;;1.95;1.20;;;19.20;1.00;;;;;;4842773;29;20458;-43
2023/05/01 11:07:04;;;;;;;2.53;2.00;;;19.20;1.00;;;;;;4837833;29;20050;-46
2023/05/01 11:09:42;;;;;;;2.05;1.40;;;19.20;1.00;;;;;;4843169;29;20046;-45
2023/05/01 11:12:10;;;;;;;4.93;1.52;;;19.20;1.00;;;;;;4843380;29;20110;-44
2023/05/01 11:14:53;;;;;;;1.73;1.02;;;19.20;1.00;;;;;;4827743;29;20120;-44
2023/05/01 11:17:38;;;;;;;2.47;1.38;;;19.20;1.00;;;;;;4842032;29;20054;-44
2023/05/01 11:20:09;;;;;;;1.90;1.10;;;19.20;1.00;;;;;;4839124;29;20453;-48
2023/05/01 11:22:41;;;;;;;3.75;1.75;;;19.20;1.00;;;;;;4843205;29;20082;-47
2023/05/01 11:25:19;;;;;;;3.30;1.73;;;19.20;1.00;;;;;;4842580;29;20060;-44
2023/05/01 11:27:48;;;;;;;3.95;1.80;;;19.20;1.00;;;;;;4842981;29;20038;-43
2023/05/01 11:30:16;;;;;;;2.33;1.45;;;19.20;1.00;;;;;;4842833;29;20053;-44
2023/05/01 11:32:44;;;;;;;2.90;1.15;;;19.20;1.00;;;;;;4842285;29;20038;-47
2023/05/01 11:35:22;;;;;;;3.08;1.20;;;19.20;1.00;;;;;;4842563;29;20070;-45
2023/05/01 11:37:50;;;;;;;3.55;1.52;;;19.20;1.00;;;;;;4842753;29;20080;-47
2023/05/01 11:40:31;;;;;;;3.10;1.20;;;19.20;1.00;;;;;;4842664;29;20521;-44
2023/05/01 11:43:01;;;;;;;2.13;1.20;;;19.20;1.00;;;;;;4842461;29;20078;-44
2023/05/01 11:45:28;;;;;;;2.28;1.17;;;19.20;1.00;;;;;;4842435;29;20042;-44
2023/05/01 11:47:55;;;;;;;3.25;1.60;;;19.20;1.00;;;;;;4842451;29;20050;-47
2023/05/01 11:50:31;;;;;;;2.20;1.30;;;19.20;1.00;;;;;;4842502;29;20056;-43
2023/05/01 11:52:57;;;;;;;3.60;1.08;;;19.20;1.00;;;;;;4834944;29;20054;-45
2023/05/01 11:55:32;;;;;;;4.30;1.13;;;19.20;1.00;;;;;;4842291;29;20049;-43
2023/05/01 11:58:00;;;;;;;2.63;1.65;;;19.20;1.00;;;;;;4842720;29;20420;-45
2023/05/01 12:00:33;;;;;;;2.25;1.35;;;19.20;1.00;;;;;;4833225;29;20476;-43
2023/05/01 12:03:02;;;;;;;2.17;1.23;;;19.20;1.00;;;;;;4837090;29;20810;-45
2023/05/01 12:05:31;;;;;;;3.55;2.40;;;19.20;1.00;;;;;;4842096;29;20042;-43
2023/05/01 12:08:19;;;;;;;3.63;1.42;;;19.20;1.00;;;;;;4842210;29;20514;-43
2023/05/01 12:10:49;;;;;;;2.20;1.30;;;19.20;1.00;;;;;;4842219;29;20041;-44
2023/05/01 12:13:16;;;;;;;2.22;1.38;;;19.20;1.00;;;;;;4841970;29;20230;-44
2023/05/01 12:15:47;;;;;;;5.25;1.50;;;19.20;1.00;;;;;;4834507;29;20126;-43
2023/05/01 12:18:15;;;;;;;3.10;1.58;;;19.20;1.00;;;;;;4827701;29;20471;-43
2023/05/01 12:20:50;;;;;;;2.13;1.38;;;19.20;1.00;;;;;;4834874;29;20521;-43
2023/05/01 12:23:19;;;;;;;1.75;1.10;;;19.20;1.00;;;;;;4841639;29;20074;-45
2023/05/01 12:25:46;;;;;;;2.30;1.25;;;19.20;1.00;;;;;;4841761;29;20054;-43
2023/05/01 12:28:16;;;;;;;2.08;1.15;;;19.20;1.00;;;;;;4841622;29;20046;-44
2023/05/01 12:30:45;;;;;;;2.67;1.20;;;19.20;1.00;;;;;;4841945;29;20124;-44
2023/05/01 12:33:13;;;;;;;3.83;1.85;;;19.20;1.00;;;;;;4841860;29;20042;-43
2023/05/01 12:35:41;;;;;;;1.98;1.30;;;19.20;1.00;;;;;;4841708;29;20106;-45
2023/05/01 12:38:16;;;;;;;2.72;1.35;;;19.20;1.00;;;;;;4841794;29;20046;-43
2023/05/01 12:40:58;;;;;;;2.30;1.50;;;19.20;1.00;;;;;;4841855;29;20094;-44
2023/05/01 12:43:31;;;;;;;3.67;1.63;;;19.20;1.00;;;;;;4841305;29;20050;-44
2023/05/01 12:45:58;;;;;;;3.75;1.77;;;19.20;1.00;;;;;;4840957;29;20103;-45
2023/05/01 12:48:25;;;;;;;3.38;1.45;;;19.20;1.00;;;;;;4841637;29;20073;-45
2023/05/01 12:50:55;;;;;;;2.45;1.60;;;19.20;1.00;;;;;;4841740;29;20042;-45
2023/05/01 12:53:25;;;;;;;3.83;2.10;;;19.20;1.00;;;;;;4841638;29;20415;-46
2023/05/01 12:55:56;;;;;;;3.53;1.95;;;19.20;1.00;;;;;;4841638;29;20042;-44
2023/05/01 12:58:33;;;;;;;3.05;1.58;;;19.20;1.00;;;;;;4841578;29;20102;-43
2023/05/01 13:01:00;;;;;;;3.10;1.80;;;19.20;1.00;;;;;;4841435;29;20046;-45
2023/05/01 13:03:29;;;;;;;4.47;1.65;;;19.20;1.00;;;;;;4841277;29;20042;-44
2023/05/01 13:05:58;;;;;;;2.28;1.60;;;19.20;1.00;;;;;;4841308;29;20252;-44
2023/05/01 13:08:51;;;;;;;3.83;1.80;;;19.20;1.00;;;;;;4841309;29;20410;-44
2023/05/01 13:11:18;;;;;;;3.85;2.13;;;19.20;1.00;;;;;;4839912;29;20054;-43
2023/05/01 13:13:46;;;;;;;3.42;1.90;;;19.20;1.00;;;;;;4841276;29;20042;-45